Time;durP1;ratioP1;P1;durP2;ratioP2;P2;SDS_P1;SDS_P2;PMS_P1;PMS_P2;Temp;Humidity;BMP_temperature;BMP_pressure;BME280_temperature;BME280_humidity;BME280_pressure;Samples;Min_cycle;Max_cycle;Signal;HPM_P1;HPM_P2
2023/08/30 00:00:45;;;;;;;7.30;6.30;;;15.80;74.30;;;;;;4929874;29;20130;-78
2023/08/30 00:03:12;;;;;;;5.90;5.30;;;15.80;74.20;;;;;;4929982;29;20059;-78
2023/08/30 00:05:41;;;;;;;7.07;5.70;;;15.70;74.10;;;;;;4930637;29;20035;-80
2023/08/30 00:08:08;;;;;;;5.97;5.20;;;15.70;74.10;;;;;;4922972;29;20040;-79
2023/08/30 00:10:34;;;;;;;9.88;8.30;;;15.70;74.10;;;;;;4911785;28;20043;-78
2023/08/30 00:12:59;;;;;;;7.65;6.85;;;15.70;74.10;;;;;;4905889;29;20067;-79
2023/08/30 00:15:25;;;;;;;7.95;6.47;;;15.70;73.90;;;;;;4917580;29;20044;-79
2023/08/30 00:17:51;;;;;;;8.57;7.68;;;15.70;73.80;;;;;;4926991;29;20040;-79
2023/08/30 00:20:18;;;;;;;6.45;5.75;;;15.60;73.70;;;;;;4932218;29;20051;-79
2023/08/30 00:22:44;;;;;;;7.38;6.32;;;15.60;73.70;;;;;;4927896;29;20043;-79
2023/08/30 00:25:09;;;;;;;10.02;7.63;;;15.60;73.70;;;;;;4925300;29;20099;-79
2023/08/30 00:27:35;;;;;;;7.40;6.63;;;15.60;73.60;;;;;;4921957;29;20039;-79
2023/08/30 00:30:01;;;;;;;8.00;6.50;;;15.60;73.60;;;;;;4926781;29;20040;-78
2023/08/30 00:32:26;;;;;;;7.45;5.53;;;15.50;73.40;;;;;;4923773;29;20044;-78
2023/08/30 00:34:52;;;;;;;7.40;6.65;;;15.50;73.50;;;;;;4924307;29;20035;-76
2023/08/30 00:37:18;;;;;;;7.45;6.40;;;15.50;73.40;;;;;;4929188;29;20043;-76
2023/08/30 00:39:50;;;;;;;7.45;6.13;;;15.40;73.40;;;;;;5116492;27;20418;-75
2023/08/30 00:42:16;;;;;;;7.95;6.03;;;15.40;73.40;;;;;;5091668;28;20039;-76
2023/08/30 00:44:42;;;;;;;6.80;6.15;;;15.40;73.40;;;;;;5109346;28;20035;-76
2023/08/30 00:47:08;;;;;;;7.43;6.50;;;15.30;73.30;;;;;;5091584;28;20035;-76
2023/08/30 00:49:33;;;;;;;9.00;6.78;;;15.30;73.40;;;;;;5096586;28;20035;-76
2023/08/30 00:52:03;;;;;;;6.28;5.65;;;15.30;73.50;;;;;;5114574;28;20539;-76
2023/08/30 00:54:29;;;;;;;6.40;4.90;;;15.20;73.60;;;;;;5126992;27;20422;-76
2023/08/30 00:56:55;;;;;;;7.50;6.03;;;15.20;73.70;;;;;;5114747;28;20036;-76
2023/08/30 00:59:22;;;;;;;7.53;6.78;;;15.20;73.90;;;;;;5092251;28;20383;-76
2023/08/30 01:01:48;;;;;;;7.43;6.20;;;15.20;73.80;;;;;;5115319;28;20032;-76
2023/08/30 01:04:14;;;;;;;8.05;6.68;;;15.20;73.80;;;;;;5095217;28;20052;-76
2023/08/30 01:06:41;;;;;;;9.00;7.80;;;15.20;73.90;;;;;;5089748;28;20070;-75
2023/08/30 01:09:08;;;;;;;8.93;7.32;;;15.10;73.90;;;;;;5119278;27;20486;-76
2023/08/30 01:11:46;;;;;;;8.18;6.68;;;15.10;74.00;;;;;;5113532;28;20399;-76
2023/08/30 01:14:20;;;;;;;7.65;6.78;;;15.10;74.10;;;;;;5119147;28;20052;-76
2023/08/30 01:16:47;;;;;;;8.13;7.32;;;15.00;74.30;;;;;;5123933;28;20402;-76
2023/08/30 01:19:18;;;;;;;7.53;6.72;;;15.00;74.40;;;;;;5111424;28;20058;-76
2023/08/30 01:21:50;;;;;;;12.35;7.32;;;15.00;74.60;;;;;;5118332;27;20112;-76
2023/08/30 01:24:29;;;;;;;8.35;6.18;;;15.00;75.20;;;;;;5113310;28;20118;-78
2023/08/30 01:27:15;;;;;;;7.63;6.85;;;15.00;75.00;;;;;;5125345;28;20153;-78
2023/08/30 01:29:44;;;;;;;10.05;8.43;;;15.00;75.10;;;;;;5112353;28;20502;-78
2023/08/30 01:32:11;;;;;;;9.68;8.18;;;15.00;75.20;;;;;;5113138;28;20044;-78
2023/08/30 01:34:38;;;;;;;11.13;8.75;;;14.90;75.20;;;;;;5119943;28;20039;-78
2023/08/30 01:37:08;;;;;;;9.73;7.53;;;14.90;75.30;;;;;;5108530;28;20114;-78
2023/08/30 01:39:38;;;;;;;7.63;6.90;;;14.90;75.40;;;;;;5098711;28;20051;-78
2023/08/30 01:42:04;;;;;;;9.05;7.43;;;14.90;75.50;;;;;;5087445;28;20028;-78
2023/08/30 01:44:31;;;;;;;10.93;8.70;;;14.90;75.50;;;;;;5076439;28;20380;-78
2023/08/30 01:46:58;;;;;;;10.38;8.95;;;14.90;75.60;;;;;;5100017;28;20091;-78
2023/08/30 01:49:25;;;;;;;8.90;7.95;;;14.90;75.50;;;;;;5094780;28;20036;-78
2023/08/30 01:51:51;;;;;;;12.30;9.35;;;14.90;75.60;;;;;;5082767;28;20027;-80
2023/08/30 01:54:19;;;;;;;11.40;10.20;;;14.90;75.60;;;;;;5084640;28;20558;-79
2023/08/30 01:56:47;;;;;;;12.05;10.65;;;14.90;75.60;;;;;;5106945;28;20097;-79
2023/08/30 01:59:13;;;;;;;11.63;10.43;;;14.80;75.70;;;;;;5083546;28;20032;-79
2023/08/30 02:01:39;;;;;;;11.68;10.40;;;14.80;75.80;;;;;;5104154;28;20065;-78
2023/08/30 02:04:05;;;;;;;10.57;9.55;;;14.80;75.90;;;;;;5104221;28;20078;-79
2023/08/30 02:06:45;;;;;;;11.98;10.15;;;14.70;75.90;;;;;;5085072;28;20032;-79
2023/08/30 02:09:40;;;;;;;10.77;9.43;;;14.70;76.10;;;;;;5102767;28;20096;-79
2023/08/30 02:12:12;;;;;;;12.52;10.35;;;14.70;76.10;;;;;;5099257;28;20043;-79
2023/08/30 02:14:39;;;;;;;10.52;9.27;;;14.60;76.10;;;;;;5103272;28;20101;-79
2023/08/30 02:17:06;;;;;;;10.82;8.90;;;14.60;76.20;;;;;;5072180;28;20040;-79
2023/08/30 02:19:33;;;;;;;11.70;9.45;;;14.60;76.30;;;;;;5088566;28;20491;-79
2023/08/30 02:21:59;;;;;;;11.18;9.25;;;14.60;76.30;;;;;;5104362;28;20040;-79
2023/08/30 02:24:25;;;;;;;9.50;7.57;;;14.60;76.20;;;;;;5099979;28;20030;-79
2023/08/30 02:26:50;;;;;;;8.10;7.30;;;14.60;76.10;;;;;;5080914;28;20066;-79
2023/08/30 02:29:16;;;;;;;7.93;6.45;;;14.60;76.20;;;;;;5099373;28;20066;-80
2023/08/30 02:31:42;;;;;;;6.43;5.63;;;14.60;76.20;;;;;;5082849;28;20041;-79
2023/08/30 02:34:07;;;;;;;6.40;5.65;;;14.60;76.40;;;;;;5101639;28;20039;-78
2023/08/30 02:36:33;;;;;;;8.70;5.93;;;14.60;76.50;;;;;;5101254;28;20032;-78
2023/08/30 02:38:59;;;;;;;10.00;7.80;;;14.60;76.50;;;;;;5099353;28;20048;-79
2023/08/30 02:41:24;;;;;;;9.38;8.38;;;14.60;76.40;;;;;;5094920;28;20074;-79
2023/08/30 02:43:50;;;;;;;10.27;8.32;;;14.60;76.20;;;;;;5076455;28;20046;-79
2023/08/30 02:46:16;;;;;;;11.00;9.90;;;14.60;75.80;;;;;;5100636;28;20117;-79
2023/08/30 02:48:41;;;;;;;13.00;10.40;;;14.60;75.60;;;;;;5094907;28;20044;-79
2023/08/30 02:51:07;;;;;;;12.88;10.73;;;14.50;75.40;;;;;;5096277;28;20541;-79
2023/08/30 02:53:33;;;;;;;10.93;9.82;;;14.50;75.50;;;;;;5065608;28;20244;-79
2023/08/30 02:55:58;;;;;;;12.05;10.75;;;14.40;75.50;;;;;;5083006;28;20044;-79
2023/08/30 02:58:24;;;;;;;12.57;10.35;;;14.40;75.60;;;;;;5092963;28;20044;-79
2023/08/30 03:00:50;;;;;;;12.73;10.27;;;14.30;75.60;;;;;;5081949;28;20127;-79
2023/08/30 03:03:16;;;;;;;11.27;8.63;;;14.20;75.70;;;;;;5075755;28;20035;-79
2023/08/30 03:05:41;;;;;;;11.35;9.77;;;14.10;75.90;;;;;;5081267;28;20587;-79
2023/08/30 03:08:07;;;;;;;11.43;10.23;;;14.10;76.30;;;;;;5079444;28;20476;-79
2023/08/30 03:10:33;;;;;;;11.57;9.70;;;14.10;77.00;;;;;;5087410;28;20027;-79
2023/08/30 03:12:59;;;;;;;10.68;9.52;;;14.00;77.00;;;;;;5095922;28;20421;-79
2023/08/30 03:15:24;;;;;;;12.15;10.65;;;14.00;77.00;;;;;;5086768;28;20039;-78
2023/08/30 03:17:50;;;;;;;11.02;9.93;;;14.00;77.20;;;;;;5089606;28;20406;-78
2023/08/30 03:20:16;;;;;;;10.23;9.15;;;14.00;77.40;;;;;;5090124;28;20039;-78
2023/08/30 03:22:42;;;;;;;11.93;10.13;;;14.00;77.60;;;;;;5083679;28;20436;-78
2023/08/30 03:25:09;;;;;;;11.20;9.98;;;14.00;77.80;;;;;;5108369;28;20036;-78
2023/08/30 03:27:35;;;;;;;13.25;10.02;;;14.00;77.80;;;;;;5099892;28;20078;-78
2023/08/30 03:30:06;;;;;;;11.82;9.25;;;14.00;78.00;;;;;;5103590;28;20031;-79
2023/08/30 03:32:32;;;;;;;11.20;9.65;;;14.00;78.10;;;;;;5063886;28;20064;-79
2023/08/30 03:34:58;;;;;;;11.02;9.10;;;14.00;78.20;;;;;;5095209;28;20040;-78
2023/08/30 03:37:23;;;;;;;9.80;8.80;;;14.00;78.30;;;;;;5101311;28;21659;-78
2023/08/30 03:39:49;;;;;;;12.00;9.77;;;14.00;78.30;;;;;;5107130;28;20520;-78
2023/08/30 03:42:15;;;;;;;10.82;9.15;;;14.00;78.80;;;;;;5072932;28;20037;-78
2023/08/30 03:44:40;;;;;;;12.88;10.52;;;14.00;78.40;;;;;;5060610;28;20067;-79
2023/08/30 03:47:07;;;;;;;10.38;9.10;;;14.00;78.30;;;;;;5103794;28;20473;-79
2023/08/30 03:49:33;;;;;;;11.02;9.70;;;14.00;78.30;;;;;;5100849;28;20040;-79
2023/08/30 03:51:58;;;;;;;11.48;9.20;;;14.00;78.30;;;;;;5102805;28;20036;-79
2023/08/30 03:54:24;;;;;;;10.52;8.75;;;14.10;78.40;;;;;;5084728;28;20089;-79
2023/08/30 03:56:50;;;;;;;10.60;9.00;;;14.10;78.40;;;;;;5081358;28;20043;-79
2023/08/30 03:59:15;;;;;;;11.32;8.65;;;14.10;78.30;;;;;;5087878;28;20067;-79
2023/08/30 04:01:41;;;;;;;11.15;9.73;;;14.10;78.20;;;;;;5086564;28;20038;-80
2023/08/30 04:04:07;;;;;;;11.02;9.50;;;14.10;78.20;;;;;;5067821;28;20032;-79
2023/08/30 04:06:32;;;;;;;9.65;8.65;;;14.10;78.30;;;;;;5083986;28;20425;-79
2023/08/30 04:08:58;;;;;;;11.85;10.00;;;14.10;78.30;;;;;;5081397;28;20043;-79
2023/08/30 04:11:24;;;;;;;11.43;9.38;;;14.10;78.40;;;;;;5084959;28;20081;-79
2023/08/30 04:13:49;;;;;;;12.43;10.18;;;14.10;78.40;;;;;;5095600;28;20067;-79
2023/08/30 04:16:15;;;;;;;12.15;10.20;;;14.10;78.30;;;;;;5090762;28;20051;-79
2023/08/30 04:18:41;;;;;;;12.35;10.32;;;14.10;78.40;;;;;;5078800;28;20463;-79
2023/08/30 04:21:08;;;;;;;11.18;9.90;;;14.10;78.40;;;;;;5100062;28;20467;-79
2023/08/30 04:23:34;;;;;;;11.95;10.43;;;14.10;78.50;;;;;;5077956;28;20044;-79
2023/08/30 04:26:00;;;;;;;13.52;11.15;;;14.10;78.50;;;;;;5097876;28;20035;-79
2023/08/30 04:28:26;;;;;;;13.02;10.43;;;14.10;78.60;;;;;;5069743;28;20032;-79
2023/08/30 04:30:56;;;;;;;12.18;10.30;;;14.10;78.60;;;;;;5063784;28;20110;-79
2023/08/30 04:33:23;;;;;;;11.77;10.55;;;14.10;78.80;;;;;;5089297;28;20047;-78
2023/08/30 04:35:53;;;;;;;13.13;11.30;;;14.00;78.80;;;;;;5094751;28;20398;-78
2023/08/30 04:38:19;;;;;;;14.13;11.70;;;14.00;78.90;;;;;;5100741;28;20127;-79
2023/08/30 04:40:46;;;;;;;11.05;9.95;;;14.00;78.80;;;;;;5044970;28;20090;-79
2023/08/30 04:43:12;;;;;;;13.32;10.82;;;14.00;78.90;;;;;;5080568;28;20429;-79
2023/08/30 04:45:38;;;;;;;11.50;10.20;;;14.00;79.10;;;;;;5088661;28;20094;-79
2023/08/30 04:48:04;;;;;;;12.25;10.70;;;14.00;79.20;;;;;;5094468;28;20035;-79
2023/08/30 04:50:30;;;;;;;12.23;10.93;;;14.00;79.30;;;;;;5075875;28;20391;-79
2023/08/30 04:52:56;;;;;;;12.85;10.85;;;14.00;79.40;;;;;;5091689;28;20043;-79
2023/08/30 04:55:24;;;;;;;14.25;10.75;;;14.00;79.50;;;;;;5094707;28;20454;-79
2023/08/30 04:57:50;;;;;;;13.38;10.60;;;14.00;79.50;;;;;;5093789;28;20051;-79
2023/08/30 05:00:17;;;;;;;14.73;10.90;;;14.00;79.40;;;;;;5112318;28;20036;-79
2023/08/30 05:02:46;;;;;;;12.75;10.45;;;14.00;79.30;;;;;;5077581;28;20075;-79
2023/08/30 05:05:12;;;;;;;13.30;11.23;;;14.00;79.30;;;;;;5094232;28;20074;-80
2023/08/30 05:07:38;;;;;;;11.82;10.38;;;14.00;79.40;;;;;;5106440;28;20039;-79
2023/08/30 05:10:04;;;;;;;13.60;10.60;;;14.00;79.30;;;;;;5065898;28;20035;-79
2023/08/30 05:12:30;;;;;;;12.23;10.18;;;14.10;79.20;;;;;;5096811;28;20040;-79
2023/08/30 05:14:56;;;;;;;11.55;9.73;;;14.10;79.10;;;;;;5081933;28;20028;-79
2023/08/30 05:17:21;;;;;;;12.80;10.98;;;14.10;79.00;;;;;;5099633;28;20035;-78
2023/08/30 05:19:47;;;;;;;12.38;9.60;;;14.10;78.80;;;;;;5088709;28;20039;-81
2023/08/30 05:22:13;;;;;;;11.65;9.48;;;14.10;78.70;;;;;;5101052;28;20035;-79
2023/08/30 05:24:39;;;;;;;11.50;10.20;;;14.10;79.10;;;;;;5062293;28;20037;-78
2023/08/30 05:27:05;;;;;;;12.75;10.48;;;14.20;78.60;;;;;;5081954;28;20036;-78
2023/08/30 05:29:30;;;;;;;14.25;10.65;;;14.20;78.40;;;;;;5061645;28;20085;-78
2023/08/30 05:31:56;;;;;;;12.27;10.55;;;14.20;78.20;;;;;;5092906;28;20036;-79
2023/08/30 05:34:23;;;;;;;11.32;9.93;;;14.30;78.10;;;;;;5106891;28;20038;-78
2023/08/30 05:36:49;;;;;;;15.07;11.30;;;14.30;77.90;;;;;;5095055;28;20103;-78
2023/08/30 05:39:15;;;;;;;12.85;10.13;;;14.30;77.70;;;;;;5090405;28;20131;-79
2023/08/30 05:41:40;;;;;;;12.75;8.88;;;14.30;77.60;;;;;;5111255;28;20101;-79
2023/08/30 05:44:07;;;;;;;11.50;10.30;;;14.30;77.40;;;;;;5085650;28;20040;-80
2023/08/30 05:46:32;;;;;;;11.68;9.63;;;14.40;77.40;;;;;;5101228;28;20101;-80
2023/08/30 05:49:00;;;;;;;13.27;10.77;;;14.30;77.20;;;;;;5089850;28;20100;-80
2023/08/30 05:51:26;;;;;;;11.40;9.93;;;14.40;77.20;;;;;;5095175;28;20119;-80
2023/08/30 05:53:51;;;;;;;14.95;10.85;;;14.40;77.10;;;;;;5103448;28;20036;-80
2023/08/30 05:56:17;;;;;;;15.60;11.65;;;14.40;76.90;;;;;;5091606;28;20032;-80
2023/08/30 05:58:43;;;;;;;12.48;10.68;;;14.50;76.90;;;;;;5088575;28;20072;-80
2023/08/30 06:01:09;;;;;;;12.77;10.55;;;14.50;76.90;;;;;;5077605;28;20100;-79
2023/08/30 06:03:35;;;;;;;13.52;11.25;;;14.50;76.80;;;;;;5111323;28;20122;-80
2023/08/30 06:06:01;;;;;;;12.90;10.18;;;14.60;76.80;;;;;;5124683;28;20039;-79
2023/08/30 06:08:27;;;;;;;13.68;10.60;;;14.60;76.60;;;;;;5120366;28;20402;-78
2023/08/30 06:10:53;;;;;;;14.60;10.82;;;14.60;76.70;;;;;;5098186;28;20126;-78
2023/08/30 06:13:19;;;;;;;13.23;10.90;;;14.70;76.60;;;;;;5114827;28;20118;-78
2023/08/30 06:15:45;;;;;;;13.88;10.45;;;14.70;76.60;;;;;;5115278;28;20122;-77
2023/08/30 06:18:11;;;;;;;14.30;10.82;;;14.70;76.50;;;;;;5077360;28;20491;-78
2023/08/30 06:20:41;;;;;;;14.77;11.27;;;14.70;76.40;;;;;;5091568;28;20157;-78
2023/08/30 06:23:06;;;;;;;14.57;11.10;;;14.70;76.40;;;;;;5074701;28;20036;-78
2023/08/30 06:25:32;;;;;;;12.18;10.60;;;14.70;76.30;;;;;;5076319;28;20534;-80
2023/08/30 06:28:01;;;;;;;13.25;10.80;;;14.80;76.20;;;;;;5094883;28;20071;-77
2023/08/30 06:30:27;;;;;;;15.38;11.70;;;14.80;76.20;;;;;;5059984;28;20044;-77
2023/08/30 06:32:53;;;;;;;12.07;9.85;;;14.80;76.00;;;;;;5092592;28;20097;-77
2023/08/30 06:35:18;;;;;;;15.35;10.30;;;14.80;75.80;;;;;;5088385;28;20043;-77
2023/08/30 06:37:44;;;;;;;12.77;10.85;;;14.80;75.70;;;;;;5077145;28;20105;-78
2023/08/30 06:40:10;;;;;;;13.45;10.25;;;14.80;75.60;;;;;;5076944;28;20089;-78
2023/08/30 06:42:36;;;;;;;13.07;10.10;;;14.90;75.50;;;;;;5077723;28;20046;-78
2023/08/30 06:45:02;;;;;;;14.40;10.68;;;14.90;75.40;;;;;;5077338;28;20665;-78
2023/08/30 06:47:28;;;;;;;14.50;10.13;;;14.90;75.40;;;;;;5078627;28;20036;-78
2023/08/30 06:49:54;;;;;;;13.15;10.00;;;15.00;75.60;;;;;;5077467;28;20063;-78
2023/08/30 06:52:20;;;;;;;11.63;10.02;;;14.90;75.60;;;;;;5090276;28;20070;-78
2023/08/30 06:54:45;;;;;;;12.48;10.10;;;15.00;75.50;;;;;;5073657;28;20045;-78
2023/08/30 06:57:11;;;;;;;13.77;9.65;;;15.00;75.40;;;;;;5073634;28;20052;-78
2023/08/30 06:59:37;;;;;;;14.32;9.98;;;15.10;75.60;;;;;;5081014;28;20046;-79
2023/08/30 07:02:03;;;;;;;12.63;9.45;;;15.10;75.60;;;;;;5089430;28;20073;-79
2023/08/30 07:04:29;;;;;;;12.77;9.77;;;15.20;75.50;;;;;;5094145;28;20598;-79
2023/08/30 07:06:55;;;;;;;13.38;10.05;;;15.20;75.60;;;;;;5080236;28;20040;-79
2023/08/30 07:09:23;;;;;;;11.63;9.85;;;15.20;75.50;;;;;;5083746;28;20040;-79
2023/08/30 07:11:49;;;;;;;12.63;9.82;;;15.30;75.20;;;;;;5057127;28;20045;-79
2023/08/30 07:14:14;;;;;;;14.93;9.55;;;15.40;75.20;;;;;;5075650;28;20147;-79
2023/08/30 07:16:41;;;;;;;11.63;9.18;;;15.50;74.90;;;;;;5088913;28;20483;-79
2023/08/30 07:19:07;;;;;;;13.00;9.48;;;15.50;74.80;;;;;;5105191;28;20044;-79
2023/08/30 07:21:35;;;;;;;17.92;9.48;;;15.70;73.70;;;;;;5088388;28;20043;-79
2023/08/30 07:24:01;;;;;;;10.82;8.40;;;15.80;73.30;;;;;;5066855;28;20101;-79
2023/08/30 07:26:27;;;;;;;10.90;9.18;;;16.00;73.20;;;;;;5067473;28;20096;-79
2023/08/30 07:28:53;;;;;;;10.45;7.40;;;16.10;72.40;;;;;;5066427;28;20503;-78
2023/08/30 07:31:18;;;;;;;9.38;7.85;;;16.20;71.80;;;;;;5066418;28;20040;-78
2023/08/30 07:33:47;;;;;;;11.05;8.70;;;16.40;71.60;;;;;;5107139;28;20482;-78
2023/08/30 07:36:16;;;;;;;10.55;8.45;;;16.50;70.20;;;;;;5122602;28;20047;-79
2023/08/30 07:38:41;;;;;;;10.13;8.43;;;16.50;69.80;;;;;;5104059;28;20080;-78
2023/08/30 07:41:07;;;;;;;10.38;8.73;;;16.60;69.60;;;;;;5103174;28;20040;-78
2023/08/30 07:43:33;;;;;;;11.68;8.98;;;16.70;69.80;;;;;;5068952;28;20395;-78
2023/08/30 07:45:59;;;;;;;12.50;9.65;;;16.80;69.40;;;;;;5097448;28;20066;-76
2023/08/30 07:48:25;;;;;;;12.10;9.10;;;16.80;68.40;;;;;;5064668;28;20110;-76
2023/08/30 07:50:50;;;;;;;12.70;9.70;;;16.80;68.30;;;;;;5079036;28;20039;-76
2023/08/30 07:53:16;;;;;;;14.07;10.63;;;16.90;68.50;;;;;;5088550;28;20116;-77
2023/08/30 07:55:42;;;;;;;10.60;9.18;;;16.90;68.10;;;;;;5088623;28;20514;-76
2023/08/30 07:58:10;;;;;;;13.20;10.05;;;16.90;67.90;;;;;;5072197;28;20079;-76
2023/08/30 08:00:36;;;;;;;12.70;10.27;;;16.90;67.90;;;;;;5106024;28;20041;-76
2023/08/30 08:03:02;;;;;;;13.73;10.55;;;16.90;67.70;;;;;;5056322;28;20124;-77
2023/08/30 08:05:28;;;;;;;11.75;9.57;;;16.90;67.40;;;;;;5072146;28;20045;-76
2023/08/30 08:07:54;;;;;;;12.30;9.65;;;16.90;67.20;;;;;;5079554;28;20058;-76
2023/08/30 08:10:20;;;;;;;14.02;10.57;;;16.80;67.70;;;;;;5091736;28;20040;-76
2023/08/30 08:12:46;;;;;;;11.80;9.40;;;16.90;68.00;;;;;;5055498;28;20504;-76
2023/08/30 08:15:11;;;;;;;13.77;10.07;;;16.90;68.20;;;;;;5089002;28;20123;-76
2023/08/30 08:17:37;;;;;;;11.43;9.90;;;16.90;68.40;;;;;;5088420;28;20044;-76
2023/08/30 08:20:05;;;;;;;10.60;9.20;;;16.90;68.30;;;;;;5088604;28;20074;-76
2023/08/30 08:22:31;;;;;;;12.90;9.40;;;16.90;67.90;;;;;;5071321;28;20044;-76
2023/08/30 08:24:57;;;;;;;10.73;8.70;;;16.90;67.90;;;;;;5087964;28;20032;-77
2023/08/30 08:27:24;;;;;;;12.60;9.80;;;16.90;67.90;;;;;;5071754;28;20521;-77
2023/08/30 08:29:50;;;;;;;10.60;8.82;;;16.90;67.80;;;;;;5088817;28;20044;-76
2023/08/30 08:32:16;;;;;;;11.60;9.40;;;16.80;67.70;;;;;;5077717;28;20394;-77
2023/08/30 08:34:41;;;;;;;13.93;10.27;;;16.80;67.80;;;;;;5111872;28;20463;-76
2023/08/30 08:37:07;;;;;;;8.68;7.25;;;16.80;67.60;;;;;;5095357;28;20047;-77
2023/08/30 08:39:36;;;;;;;9.35;7.40;;;16.70;67.70;;;;;;5088215;28;20055;-77
2023/08/30 08:42:05;;;;;;;10.07;7.40;;;16.70;68.00;;;;;;5074683;28;20040;-77
2023/08/30 08:44:32;;;;;;;9.52;8.27;;;16.70;68.30;;;;;;5058145;28;20040;-77
2023/08/30 08:46:59;;;;;;;10.50;8.10;;;16.60;68.40;;;;;;5074505;28;20032;-77
2023/08/30 08:49:30;;;;;;;9.40;7.18;;;16.60;68.50;;;;;;5085883;28;20090;-77
2023/08/30 08:51:56;;;;;;;9.82;8.35;;;16.60;68.70;;;;;;5094674;28;20036;-76
2023/08/30 08:54:25;;;;;;;9.00;6.38;;;16.60;69.10;;;;;;5078380;28;20046;-77
2023/08/30 08:56:55;;;;;;;8.68;7.00;;;16.60;69.60;;;;;;5082293;28;20509;-77
2023/08/30 08:59:27;;;;;;;10.65;7.97;;;16.60;70.10;;;;;;5074456;28;20411;-77
2023/08/30 09:01:53;;;;;;;7.88;6.45;;;16.60;70.80;;;;;;5086279;28;20092;-77
2023/08/30 09:04:19;;;;;;;9.38;6.07;;;16.60;71.00;;;;;;5116252;28;20089;-77
2023/08/30 09:06:45;;;;;;;9.45;6.15;;;16.60;71.20;;;;;;5099037;28;20036;-77
2023/08/30 09:09:11;;;;;;;8.38;6.57;;;16.60;71.40;;;;;;5098977;28;20040;-79
2023/08/30 09:11:37;;;;;;;9.18;6.55;;;16.60;71.70;;;;;;5115778;28;20510;-76
2023/08/30 09:14:03;;;;;;;8.52;6.28;;;16.60;71.90;;;;;;5086971;28;20036;-77
2023/08/30 09:16:29;;;;;;;8.82;6.97;;;16.60;72.50;;;;;;5074488;28;20039;-77
2023/08/30 09:18:59;;;;;;;7.72;5.90;;;16.60;72.70;;;;;;5098383;28;20043;-77
2023/08/30 09:21:25;;;;;;;9.93;7.65;;;16.70;73.10;;;;;;5080337;28;20036;-77
2023/08/30 09:24:06;;;;;;;9.75;7.57;;;16.70;73.20;;;;;;5090047;28;20119;-77
2023/08/30 09:26:35;;;;;;;7.22;6.20;;;16.70;73.60;;;;;;5095646;28;20070;-77
2023/08/30 09:29:05;;;;;;;9.05;7.20;;;16.70;73.80;;;;;;5092141;28;20398;-77
2023/08/30 09:31:35;;;;;;;8.15;6.45;;;16.70;74.10;;;;;;5083192;28;20105;-77
2023/08/30 09:34:02;;;;;;;10.32;8.02;;;16.70;74.50;;;;;;5094884;28;20044;-77
2023/08/30 09:36:34;;;;;;;10.45;8.30;;;16.70;75.00;;;;;;5094832;28;20047;-77
2023/08/30 09:39:02;;;;;;;8.13;6.53;;;16.70;75.30;;;;;;5068837;28;20052;-76
2023/08/30 09:41:28;;;;;;;16.23;9.52;;;16.80;75.30;;;;;;5107480;28;20398;-77
2023/08/30 09:43:54;;;;;;;9.52;7.65;;;16.80;75.60;;;;;;5101190;28;20043;-77
2023/08/30 09:46:20;;;;;;;9.57;7.93;;;16.80;75.50;;;;;;5080520;28;20036;-78
2023/08/30 09:48:50;;;;;;;7.93;7.13;;;16.80;75.40;;;;;;5095779;28;20380;-77
2023/08/30 09:51:22;;;;;;;9.32;7.30;;;16.90;75.40;;;;;;5077870;28;20131;-77
2023/08/30 09:53:49;;;;;;;9.07;6.65;;;16.80;75.30;;;;;;5114782;28;20053;-78
2023/08/30 09:56:15;;;;;;;8.77;7.53;;;16.90;75.20;;;;;;5114993;28;20061;-77
2023/08/30 09:58:42;;;;;;;7.22;6.35;;;16.90;75.20;;;;;;5065822;28;20116;-78
2023/08/30 10:01:09;;;;;;;8.93;7.53;;;16.80;75.20;;;;;;5077724;28;20503;-78
2023/08/30 10:03:35;;;;;;;7.72;6.75;;;16.90;75.10;;;;;;5086788;28;20053;-77
2023/08/30 10:06:05;;;;;;;9.00;7.35;;;16.90;74.90;;;;;;5113629;28;20100;-77
2023/08/30 10:08:33;;;;;;;8.52;5.97;;;16.90;75.00;;;;;;5083970;28;20507;-77
2023/08/30 10:11:00;;;;;;;7.57;6.07;;;16.90;75.30;;;;;;5114033;28;20053;-78
2023/08/30 10:13:26;;;;;;;7.05;5.75;;;16.90;75.10;;;;;;5115149;28;20083;-77
2023/08/30 10:15:57;;;;;;;6.90;6.13;;;16.80;74.80;;;;;;5062851;28;20032;-77
2023/08/30 10:18:28;;;;;;;9.77;6.90;;;16.80;74.80;;;;;;5090784;28;20054;-77
2023/08/30 10:20:55;;;;;;;7.40;6.57;;;16.80;74.90;;;;;;5114749;28;20031;-77
2023/08/30 10:23:22;;;;;;;8.60;6.75;;;16.80;74.70;;;;;;5114595;28;20090;-77
2023/08/30 10:25:50;;;;;;;9.05;6.68;;;16.80;74.70;;;;;;5080754;28;20040;-77
2023/08/30 10:28:19;;;;;;;7.38;5.20;;;16.70;75.00;;;;;;5080776;28;20043;-77
2023/08/30 10:30:45;;;;;;;7.05;5.10;;;16.70;75.40;;;;;;5087747;28;20040;-77
2023/08/30 10:33:14;;;;;;;8.18;6.00;;;16.60;75.40;;;;;;5086905;28;20368;-77
2023/08/30 10:35:55;;;;;;;8.88;6.28;;;16.60;75.60;;;;;;5086794;28;20445;-77
2023/08/30 10:38:33;;;;;;;6.05;4.70;;;16.60;75.70;;;;;;5086634;28;20036;-76
2023/08/30 10:41:09;;;;;;;6.15;5.07;;;16.60;75.80;;;;;;5070275;28;20041;-77
2023/08/30 10:43:37;;;;;;;9.18;5.78;;;16.60;76.00;;;;;;5102587;28;20040;-77
2023/08/30 10:46:06;;;;;;;6.35;5.07;;;16.60;75.90;;;;;;5069590;28;20032;-77
2023/08/30 10:48:40;;;;;;;6.85;5.78;;;16.60;75.80;;;;;;5068824;28;20043;-77
2023/08/30 10:51:20;;;;;;;7.45;5.95;;;16.60;75.90;;;;;;5086029;28;20043;-77
2023/08/30 10:53:58;;;;;;;7.93;6.32;;;16.50;75.70;;;;;;5069383;28;20059;-76
2023/08/30 10:56:29;;;;;;;7.18;6.05;;;16.60;76.00;;;;;;5086454;28;20051;-77
2023/08/30 10:58:55;;;;;;;7.65;6.70;;;16.60;76.20;;;;;;5068014;28;20050;-76
2023/08/30 11:01:21;;;;;;;8.57;6.38;;;16.60;76.20;;;;;;5052676;28;20040;-77
2023/08/30 11:03:49;;;;;;;10.38;7.88;;;16.60;76.00;;;;;;5067888;28;20032;-77
2023/08/30 11:06:16;;;;;;;8.30;7.35;;;16.60;76.00;;;;;;5069133;28;20044;-77
2023/08/30 11:08:42;;;;;;;7.63;6.82;;;16.60;76.00;;;;;;5063061;28;20040;-77
2023/08/30 11:11:09;;;;;;;9.32;7.97;;;16.60;76.20;;;;;;5043827;28;20135;-77
2023/08/30 11:13:35;;;;;;;9.30;7.80;;;16.60;76.40;;;;;;5062400;28;20040;-76
2023/08/30 11:16:03;;;;;;;8.35;7.47;;;16.60;76.50;;;;;;5062639;28;20548;-77
2023/08/30 11:18:39;;;;;;;10.00;7.22;;;16.50;76.70;;;;;;5063222;28;20051;-77
2023/08/30 11:21:06;;;;;;;8.93;7.82;;;16.50;76.90;;;;;;5051667;28;20032;-77
2023/08/30 11:23:32;;;;;;;9.60;8.57;;;16.50;77.00;;;;;;5059372;28;20044;-77
2023/08/30 11:25:58;;;;;;;8.82;7.90;;;16.40;77.20;;;;;;5068615;28;20059;-77
2023/08/30 11:28:25;;;;;;;9.50;8.55;;;16.40;77.40;;;;;;5061521;28;20467;-77
2023/08/30 11:30:54;;;;;;;9.45;8.13;;;16.40;77.70;;;;;;5078169;28;20071;-76
2023/08/30 11:33:21;;;;;;;10.60;8.10;;;16.40;78.20;;;;;;5076517;28;20132;-76
2023/08/30 11:35:50;;;;;;;9.90;8.02;;;16.30;78.30;;;;;;5078905;28;20041;-77
2023/08/30 11:38:17;;;;;;;9.02;8.05;;;16.30;78.40;;;;;;5061443;28;20040;-77
2023/08/30 11:40:42;;;;;;;7.97;7.13;;;16.20;78.40;;;;;;5077647;28;20121;-77
2023/08/30 11:43:09;;;;;;;9.57;8.07;;;16.20;78.60;;;;;;5060279;28;20037;-76
2023/08/30 11:45:35;;;;;;;11.13;9.15;;;16.20;78.80;;;;;;5062039;28;20036;-77
2023/08/30 11:48:01;;;;;;;10.70;9.60;;;16.10;79.10;;;;;;5061347;28;20044;-76
2023/08/30 11:50:27;;;;;;;9.50;7.80;;;16.10;79.30;;;;;;5059934;28;20092;-77
2023/08/30 11:52:56;;;;;;;8.63;7.72;;;16.10;79.60;;;;;;5060599;28;20035;-77
2023/08/30 11:55:23;;;;;;;9.48;8.48;;;16.10;80.00;;;;;;5078450;28;20028;-77
2023/08/30 11:57:50;;;;;;;9.82;8.35;;;16.10;80.20;;;;;;5078657;28;20032;-77
2023/08/30 12:00:19;;;;;;;7.88;7.05;;;16.10;80.30;;;;;;5052529;28;20043;-77
2023/08/30 12:02:46;;;;;;;10.48;8.32;;;16.10;80.30;;;;;;5084532;28;20119;-77
2023/08/30 12:05:15;;;;;;;10.40;8.48;;;16.10;80.40;;;;;;5078550;28;20036;-77
2023/08/30 12:07:41;;;;;;;8.32;7.28;;;16.10;80.60;;;;;;5062074;28;20119;-77
2023/08/30 12:10:10;;;;;;;9.27;7.95;;;16.00;80.70;;;;;;5050900;28;20036;-77
2023/08/30 12:12:39;;;;;;;9.70;8.70;;;16.10;81.00;;;;;;5061429;28;20484;-77
2023/08/30 12:15:09;;;;;;;9.40;8.40;;;16.10;81.00;;;;;;5077730;28;20360;-77
2023/08/30 12:17:35;;;;;;;9.05;8.07;;;16.00;81.00;;;;;;5079609;28;20035;-77
2023/08/30 12:20:03;;;;;;;8.32;6.90;;;16.00;81.20;;;;;;5076815;28;20128;-77
2023/08/30 12:22:39;;;;;;;8.82;7.68;;;16.00;81.40;;;;;;5060929;28;20477;-77
2023/08/30 12:25:19;;;;;;;8.88;7.60;;;16.10;81.60;;;;;;5076382;28;20067;-77
2023/08/30 12:27:45;;;;;;;9.05;7.57;;;16.10;81.60;;;;;;5077323;28;20040;-77
2023/08/30 12:30:11;;;;;;;8.10;7.30;;;16.00;81.40;;;;;;5077960;28;20131;-77
2023/08/30 12:32:37;;;;;;;8.93;8.02;;;16.00;81.30;;;;;;5060835;28;20132;-77
2023/08/30 12:35:03;;;;;;;9.02;8.18;;;16.10;81.40;;;;;;5078341;28;20075;-77
2023/08/30 12:37:28;;;;;;;8.25;7.40;;;16.00;81.50;;;;;;5059688;28;20498;-77